createdAt,value
2022-09-23T00:00:22.924Z,0
2022-09-23T00:01:23.366Z,0
2022-09-23T00:02:23.679Z,0
2022-09-23T00:03:23.087Z,0
2022-09-23T00:04:22.816Z,0
2022-09-23T00:05:23.089Z,0
2022-09-23T00:06:22.808Z,0
2022-09-23T00:07:23.024Z,0
2022-09-23T00:08:22.498Z,0
2022-09-23T00:09:22.732Z,0
2022-09-23T00:10:22.718Z,0
2022-09-23T00:11:22.704Z,0
2022-09-23T00:12:22.680Z,0
2022-09-23T00:13:22.419Z,0
2022-09-23T00:14:22.908Z,0
2022-09-23T00:15:22.405Z,0
2022-09-23T00:16:23.126Z,0
2022-09-23T00:17:22.603Z,0
2022-09-23T00:18:23.277Z,0
2022-09-23T00:19:23.083Z,0
2022-09-23T00:20:22.813Z,0
2022-09-23T00:21:22.826Z,0
2022-09-23T00:22:22.776Z,0
2022-09-23T00:23:22.523Z,0
2022-09-23T00:24:22.514Z,0
2022-09-23T00:25:22.738Z,0
2022-09-23T00:26:22.533Z,0
2022-09-23T00:27:22.948Z,0
2022-09-23T00:28:22.675Z,0
2022-09-23T00:29:22.680Z,0
2022-09-23T00:30:22.755Z,0
2022-09-23T00:31:23.270Z,0
2022-09-23T00:32:22.369Z,0
2022-09-23T00:33:22.429Z,0
2022-09-23T00:34:22.980Z,0
2022-09-23T00:35:22.569Z,0
2022-09-23T00:36:22.715Z,0
2022-09-23T00:37:22.565Z,0
2022-09-23T00:38:22.520Z,0
2022-09-23T00:39:22.502Z,0
2022-09-23T00:40:22.577Z,0
2022-09-23T00:41:22.811Z,0
2022-09-23T00:42:22.253Z,0
2022-09-23T00:43:22.440Z,0
2022-09-23T00:44:22.179Z,0
2022-09-23T00:45:22.405Z,0
2022-09-23T00:46:22.902Z,0
2022-09-23T00:47:22.387Z,0
2022-09-23T00:48:22.354Z,0
2022-09-23T00:49:22.343Z,0
2022-09-23T00:50:22.678Z,0
2022-09-23T00:51:22.309Z,0
2022-09-23T00:52:22.039Z,0
2022-09-23T00:53:23.441Z,0
2022-09-23T00:54:23.136Z,0
2022-09-23T00:55:23.123Z,0
2022-09-23T00:56:22.857Z,0
2022-09-23T00:57:22.836Z,0
2022-09-23T00:58:23.326Z,0
2022-09-23T00:59:22.803Z,0
2022-09-23T01:00:22.801Z,0
2022-09-23T01:01:22.854Z,0
2022-09-23T01:02:23.266Z,0
2022-09-23T01:03:22.494Z,0
2022-09-23T01:04:22.718Z,0
2022-09-23T01:05:22.974Z,0
2022-09-23T01:06:23.276Z,0
2022-09-23T01:07:22.681Z,0
2022-09-23T01:08:22.399Z,0
2022-09-23T01:09:22.694Z,0
2022-09-23T01:10:23.234Z,0
2022-09-23T01:11:22.611Z,0
2022-09-23T01:12:23.106Z,0
2022-09-23T01:13:22.833Z,0
2022-09-23T01:14:22.825Z,0
2022-09-23T01:15:22.540Z,0
2022-09-23T01:16:23.123Z,0
2022-09-23T01:17:22.517Z,0
2022-09-23T01:18:22.501Z,0
2022-09-23T01:19:22.987Z,0
2022-09-23T01:20:22.722Z,0
2022-09-23T01:21:22.702Z,0
2022-09-23T01:22:22.769Z,0
2022-09-23T01:23:22.674Z,0
2022-09-23T01:24:22.652Z,0
2022-09-23T01:25:22.665Z,0
2022-09-23T01:26:22.368Z,0
2022-09-23T01:27:22.096Z,0
2022-09-23T01:28:22.851Z,0
2022-09-23T01:29:22.833Z,0
2022-09-23T01:30:22.563Z,0
2022-09-23T01:31:22.606Z,0
2022-09-23T01:32:22.533Z,0
2022-09-23T01:33:22.760Z,0
2022-09-23T01:34:22.512Z,0
2022-09-23T01:35:22.241Z,0
2022-09-23T01:36:22.464Z,0
2022-09-23T01:37:22.187Z,0
2022-09-23T01:38:22.585Z,0
2022-09-23T01:39:22.407Z,0
2022-09-23T01:40:22.700Z,0
2022-09-23T01:41:22.427Z,0
2022-09-23T01:42:22.112Z,0
2022-09-23T01:43:22.346Z,0
2022-09-23T01:44:22.092Z,0
2022-09-23T01:45:22.319Z,0
2022-09-23T01:46:22.304Z,0
2022-09-23T01:47:22.035Z,0
2022-09-23T01:48:22.847Z,0
2022-09-23T01:49:23.307Z,0
2022-09-23T01:50:22.238Z,0
2022-09-23T01:51:22.486Z,0
2022-09-23T01:52:21.695Z,0
2022-09-23T01:53:21.955Z,0
2022-09-23T01:54:22.250Z,0
2022-09-23T01:55:22.419Z,0
2022-09-23T01:56:21.638Z,0
2022-09-23T01:57:22.401Z,0
2022-09-23T01:58:22.119Z,0
2022-09-23T01:59:22.100Z,0
2022-09-23T02:00:22.104Z,0
2022-09-23T02:01:22.143Z,0
2022-09-23T02:02:22.771Z,0
2022-09-23T02:03:22.043Z,0
2022-09-23T02:04:22.268Z,0
2022-09-23T02:05:21.510Z,0
2022-09-23T02:06:22.232Z,0
2022-09-23T02:07:21.718Z,0
2022-09-23T02:08:21.697Z,0
2022-09-23T02:09:22.183Z,0
2022-09-23T02:10:21.990Z,0
2022-09-23T02:11:21.649Z,0
2022-09-23T02:12:21.884Z,0
2022-09-23T02:13:21.896Z,0
2022-09-23T02:14:21.847Z,0
2022-09-23T02:15:21.833Z,0
2022-09-23T02:16:21.525Z,0
2022-09-23T02:17:21.551Z,0
2022-09-23T02:18:21.788Z,0
2022-09-23T02:19:21.774Z,0
2022-09-23T02:20:21.768Z,0
2022-09-23T02:21:21.480Z,0
2022-09-23T02:22:21.717Z,0
2022-09-23T02:23:21.963Z,0
2022-09-23T02:24:21.937Z,0
2022-09-23T02:25:21.929Z,0
2022-09-23T02:26:21.731Z,0
2022-09-23T02:27:21.643Z,0
2022-09-23T02:28:21.619Z,0
2022-09-23T02:29:21.673Z,0
2022-09-23T02:30:21.594Z,0
2022-09-23T02:31:21.384Z,0
2022-09-23T02:32:21.690Z,0
2022-09-23T02:33:21.035Z,0
2022-09-23T02:34:21.781Z,0
2022-09-23T02:35:21.257Z,0
2022-09-23T02:36:21.749Z,0
2022-09-23T02:37:21.232Z,0
2022-09-23T02:38:21.718Z,0
2022-09-23T02:39:20.932Z,0
2022-09-23T02:40:21.846Z,0
2022-09-23T02:41:21.420Z,0
2022-09-23T02:42:21.469Z,0
2022-09-23T02:43:21.391Z,0
2022-09-23T02:44:21.374Z,0
2022-09-23T02:45:21.378Z,0
2022-09-23T02:46:21.136Z,0
2022-09-23T02:47:21.569Z,0
2022-09-23T02:48:21.042Z,0
2022-09-23T02:49:21.023Z,0
2022-09-23T02:50:21.271Z,0
2022-09-23T02:51:21.245Z,0
2022-09-23T02:52:20.978Z,0
2022-09-23T02:53:20.961Z,0
2022-09-23T02:54:21.458Z,0
2022-09-23T02:55:20.932Z,0
2022-09-23T02:56:21.190Z,0
2022-09-23T02:57:21.146Z,0
2022-09-23T02:58:21.211Z,0
2022-09-23T02:59:21.387Z,0
2022-09-23T03:00:21.115Z,0
2022-09-23T03:01:21.464Z,0
2022-09-23T03:02:21.572Z,0
2022-09-23T03:03:21.058Z,0
2022-09-23T03:04:21.063Z,0
2022-09-23T03:05:20.771Z,0
2022-09-23T03:06:20.761Z,0
2022-09-23T03:07:21.002Z,0
2022-09-23T03:08:20.734Z,0
2022-09-23T03:09:20.711Z,0
2022-09-23T03:10:20.684Z,0
2022-09-23T03:11:20.924Z,0
2022-09-23T03:12:20.924Z,0
2022-09-23T03:13:20.892Z,0
2022-09-23T03:14:20.955Z,0
2022-09-23T03:15:21.204Z,0
2022-09-23T03:16:21.388Z,0
2022-09-23T03:17:20.849Z,0
2022-09-23T03:18:20.810Z,0
2022-09-23T03:19:20.793Z,0
2022-09-23T03:20:20.780Z,0
2022-09-23T03:21:20.784Z,0
2022-09-23T03:22:20.496Z,0
2022-09-23T03:23:20.478Z,0
2022-09-23T03:24:20.736Z,0
2022-09-23T03:25:20.192Z,0
2022-09-23T03:26:20.425Z,0
2022-09-23T03:27:20.430Z,0
2022-09-23T03:28:20.904Z,0
2022-09-23T03:29:20.387Z,0
2022-09-23T03:30:20.946Z,0
2022-09-23T03:31:20.988Z,0
2022-09-23T03:32:20.842Z,0
2022-09-23T03:50:03.403Z,0
2022-09-23T03:51:03.033Z,0
2022-09-23T03:52:02.577Z,0
2022-09-23T03:53:02.742Z,0
2022-09-23T03:54:03.233Z,0
2022-09-23T03:55:02.959Z,0
2022-09-23T03:56:02.687Z,0
2022-09-23T03:57:03.187Z,0
2022-09-23T03:58:02.667Z,0
2022-09-23T03:59:02.887Z,0
2022-09-23T04:00:02.610Z,0
2022-09-23T04:01:02.917Z,0
2022-09-23T04:02:03.169Z,0
2022-09-23T04:03:03.974Z,0
2022-09-23T04:04:02.801Z,0
2022-09-23T04:05:02.531Z,0
2022-09-23T04:06:03.114Z,0
2022-09-23T04:07:02.261Z,0
2022-09-23T04:08:02.757Z,0
2022-09-23T04:09:02.203Z,0
2022-09-23T04:10:02.953Z,0
2022-09-23T04:11:02.168Z,0
2022-09-23T04:12:02.920Z,0
2022-09-23T04:13:02.678Z,0
2022-09-23T04:14:02.631Z,0
2022-09-23T04:15:02.382Z,0
2022-09-23T04:16:02.555Z,0
2022-09-23T04:17:02.847Z,0
2022-09-23T04:18:02.821Z,0
2022-09-23T04:19:02.633Z,0
2022-09-23T04:20:02.529Z,0
2022-09-23T04:21:02.565Z,0
2022-09-23T04:22:02.862Z,0
2022-09-23T04:23:02.482Z,0
2022-09-23T04:24:02.206Z,0
2022-09-23T04:25:02.711Z,0
2022-09-23T04:26:02.427Z,0
2022-09-23T04:27:02.426Z,0
2022-09-23T04:28:02.414Z,0
2022-09-23T04:29:02.278Z,4
2022-09-23T04:30:02.131Z,0
2022-09-23T04:31:02.132Z,0
2022-09-23T04:32:02.650Z,4
2022-09-23T04:33:02.587Z,4
2022-09-23T04:34:02.055Z,4
2022-09-23T04:35:02.027Z,4
2022-09-23T04:36:02.262Z,4
2022-09-23T04:37:02.250Z,8
2022-09-23T04:38:02.592Z,12
2022-09-23T04:39:02.345Z,12
2022-09-23T04:40:02.474Z,16
2022-09-23T04:41:02.186Z,20
2022-09-23T04:42:01.918Z,20
2022-09-23T04:43:02.157Z,24
2022-09-23T04:44:02.398Z,28
2022-09-23T04:45:02.375Z,32
2022-09-23T04:46:02.107Z,40
2022-09-23T04:47:02.092Z,44
2022-09-23T04:48:02.077Z,48
2022-09-23T04:49:02.117Z,60
2022-09-23T04:50:06.642Z,68
2022-09-23T04:51:02.280Z,76
2022-09-23T04:52:02.003Z,88
2022-09-23T04:53:02.012Z,96
2022-09-23T04:54:02.338Z,108
2022-09-23T04:55:01.956Z,120
2022-09-23T04:56:01.938Z,132
2022-09-23T04:57:01.942Z,148
2022-09-23T04:58:01.911Z,164
2022-09-23T04:59:02.410Z,176
2022-09-23T05:00:01.624Z,196
2022-09-23T05:01:07.860Z,216
2022-09-23T05:02:01.567Z,232
2022-09-23T05:03:01.842Z,256
2022-09-23T05:04:01.821Z,276
2022-09-23T05:05:01.800Z,292
2022-09-23T05:06:01.780Z,316
2022-09-23T05:07:07.829Z,340
2022-09-23T05:08:01.386Z,360
2022-09-23T05:09:02.051Z,384
2022-09-23T05:10:02.273Z,412
2022-09-23T05:11:01.851Z,440
2022-09-23T05:12:01.830Z,468
2022-09-23T05:13:04.246Z,492
2022-09-23T05:14:01.575Z,516
2022-09-23T05:15:01.782Z,544
2022-09-23T05:16:01.965Z,568
2022-09-23T05:17:01.756Z,596
2022-09-23T05:18:01.496Z,624
2022-09-23T05:19:01.901Z,652
2022-09-23T05:20:01.715Z,676
2022-09-23T05:21:01.430Z,708
2022-09-23T05:22:01.925Z,732
2022-09-23T05:23:01.653Z,760
2022-09-23T05:24:01.303Z,780
2022-09-23T05:25:01.881Z,808
2022-09-23T05:26:01.962Z,824
2022-09-23T05:27:01.603Z,848
2022-09-23T05:28:01.576Z,884
2022-09-23T05:29:01.666Z,916
2022-09-23T05:30:01.284Z,940
2022-09-23T05:31:01.969Z,964
2022-09-23T05:32:01.536Z,984
2022-09-23T05:33:01.749Z,1004
2022-09-23T05:34:01.473Z,1028
2022-09-23T05:35:01.728Z,1052
2022-09-23T05:36:01.714Z,1072
2022-09-23T05:37:01.432Z,1096
2022-09-23T05:38:01.158Z,1124
2022-09-23T05:39:01.829Z,1144
2022-09-23T05:40:01.423Z,1164
2022-09-23T05:41:01.120Z,1188
2022-09-23T05:42:01.811Z,1208
2022-09-23T05:43:01.338Z,1228
2022-09-23T05:44:01.576Z,1248
2022-09-23T05:45:01.302Z,1272
2022-09-23T05:46:02.268Z,1292
2022-09-23T05:47:01.632Z,1308
2022-09-23T05:48:01.262Z,1324
2022-09-23T05:49:11.635Z,1344
2022-09-23T05:50:06.981Z,1360
2022-09-23T05:51:00.954Z,1380
2022-09-23T05:52:00.934Z,1400
2022-09-23T05:53:01.180Z,1420
2022-09-23T05:54:01.429Z,1440
2022-09-23T05:55:00.638Z,1452
2022-09-23T05:56:01.410Z,1472
2022-09-23T05:57:07.471Z,1488
2022-09-23T05:58:01.398Z,1500
2022-09-23T05:59:01.083Z,1516
2022-09-23T06:00:00.819Z,1532
2022-09-23T06:01:01.309Z,1544
2022-09-23T06:02:03.564Z,1564
2022-09-23T06:03:01.076Z,1576
2022-09-23T06:04:00.884Z,1588
2022-09-23T06:05:01.004Z,1596
2022-09-23T06:06:00.970Z,1612
2022-09-23T06:07:05.729Z,1632
2022-09-23T06:08:00.941Z,1644
2022-09-23T06:09:00.944Z,1656
2022-09-23T06:10:00.959Z,1672
2022-09-23T06:11:01.132Z,1684
2022-09-23T06:12:00.650Z,1692
2022-09-23T06:13:00.934Z,1704
2022-09-23T06:14:01.405Z,1712
2022-09-23T06:15:01.103Z,1724
2022-09-23T06:16:00.669Z,1728
2022-09-23T06:17:00.805Z,1736
2022-09-23T06:18:01.044Z,1744
2022-09-23T06:19:07.187Z,1756
2022-09-23T06:20:00.498Z,1764
2022-09-23T06:21:00.492Z,1776
2022-09-23T06:22:00.728Z,1784
2022-09-23T06:23:03.216Z,1796
2022-09-23T06:24:03.547Z,1808
2022-09-23T06:25:00.680Z,1820
2022-09-23T06:26:00.673Z,1836
2022-09-23T06:27:00.930Z,1844
2022-09-23T06:28:00.639Z,1852
2022-09-23T06:29:00.691Z,1864
2022-09-23T06:30:00.658Z,1872
2022-09-23T06:31:00.710Z,1884
2022-09-23T06:32:00.671Z,1900
2022-09-23T06:33:00.809Z,1900
2022-09-23T06:34:18.229Z,1908
2022-09-23T06:35:00.521Z,1908
2022-09-23T06:36:06.451Z,1908
2022-09-23T06:37:12.082Z,1908
2022-09-23T06:38:00.221Z,1920
2022-09-23T06:39:00.460Z,1936
2022-09-23T06:40:00.523Z,1948
2022-09-23T06:41:00.003Z,1944
2022-09-23T06:42:00.174Z,1980
2022-09-23T06:43:00.149Z,2000
2022-09-23T06:43:59.886Z,2032
2022-09-23T06:45:00.494Z,2056
2022-09-23T06:46:00.665Z,2076
2022-09-23T06:47:00.738Z,2096
2022-09-23T06:48:00.384Z,2100
2022-09-23T06:49:00.089Z,2116
2022-09-23T06:50:00.318Z,2168
2022-09-23T06:51:00.289Z,2184
2022-09-23T06:52:00.534Z,2200
2022-09-23T06:53:00.255Z,2212
2022-09-23T06:54:00.356Z,2228
2022-09-23T06:54:59.971Z,2240
2022-09-23T06:56:00.220Z,2256
2022-09-23T06:57:00.196Z,2264
2022-09-23T06:58:00.185Z,2280
2022-09-23T06:59:00.421Z,2300
2022-09-23T07:00:00.410Z,2324
2022-09-23T07:01:00.451Z,2360
2022-09-23T07:02:00.836Z,2392
2022-09-23T07:03:00.219Z,2436
2022-09-23T07:04:00.115Z,2480
2022-09-23T07:04:59.851Z,2536
2022-09-23T07:05:59.810Z,2596
2022-09-23T07:07:00.076Z,2652
2022-09-23T07:08:00.032Z,2688
2022-09-23T07:09:00.017Z,2708
2022-09-23T07:10:00.268Z,2724
2022-09-23T07:10:59.749Z,2732
2022-09-23T07:11:59.982Z,2736
2022-09-23T07:12:59.970Z,2740
2022-09-23T07:14:00.211Z,2740
2022-09-23T07:14:59.690Z,2740
2022-09-23T07:15:59.723Z,2740
2022-09-23T07:17:00.280Z,2732
2022-09-23T07:18:00.204Z,2720
2022-09-23T07:19:00.155Z,2700
2022-09-23T07:19:59.870Z,2688
2022-09-23T07:20:59.859Z,2676
2022-09-23T07:21:59.843Z,2676
2022-09-23T07:22:59.826Z,2672
2022-09-23T07:23:59.818Z,2668
2022-09-23T07:24:59.811Z,2660
2022-09-23T07:25:59.792Z,2648
2022-09-23T07:26:59.773Z,2660
2022-09-23T07:28:00.013Z,2660
2022-09-23T07:28:59.503Z,2664
2022-09-23T07:29:59.486Z,2664
2022-09-23T07:31:07.985Z,2668
2022-09-23T07:32:16.960Z,2664
2022-09-23T07:33:00.119Z,2664
2022-09-23T07:33:59.985Z,2660
2022-09-23T07:34:59.485Z,2648
2022-09-23T07:35:59.411Z,2644
2022-09-23T07:36:59.656Z,2640
2022-09-23T07:37:59.629Z,2640
2022-09-23T07:38:59.868Z,2644
2022-09-23T07:39:59.597Z,2648
2022-09-23T07:40:59.699Z,2648
2022-09-23T07:41:59.321Z,2656
2022-09-23T07:42:59.314Z,2656
2022-09-23T07:43:59.797Z,2656
2022-09-23T07:44:59.281Z,2656
2022-09-23T07:45:59.488Z,2656
2022-09-23T07:46:59.840Z,2648
2022-09-23T07:47:59.600Z,2652
2022-09-23T07:48:59.540Z,2680
2022-09-23T07:49:59.781Z,2712
2022-09-23T07:50:59.205Z,2732
2022-09-23T07:51:59.299Z,2764
2022-09-23T07:52:59.184Z,2796
2022-09-23T07:53:59.429Z,2824
2022-09-23T07:54:59.406Z,2844
2022-09-23T07:55:58.880Z,2860
2022-09-23T07:56:59.385Z,2872
2022-09-23T07:57:59.370Z,2884
2022-09-23T07:58:59.361Z,2888
2022-09-23T07:59:59.597Z,2900
2022-09-23T08:00:58.820Z,2908
2022-09-23T08:01:59.985Z,2932
2022-09-23T08:03:00.749Z,2932
2022-09-23T08:03:59.455Z,2944
2022-09-23T08:04:59.130Z,2936
2022-09-23T08:05:59.779Z,2936
2022-09-23T08:06:59.106Z,2964
2022-09-23T08:07:59.395Z,2968
2022-09-23T08:09:00.872Z,3000
2022-09-23T08:09:59.090Z,3012
2022-09-23T08:10:59.056Z,3044
2022-09-23T08:11:59.044Z,3056
2022-09-23T08:12:59.030Z,3048
2022-09-23T08:13:59.093Z,3044
2022-09-23T08:14:59.269Z,3032
2022-09-23T08:16:02.183Z,3044
2022-09-23T08:16:58.864Z,3048
2022-09-23T08:17:59.225Z,3076
2022-09-23T08:18:59.801Z,3060
2022-09-23T08:19:59.622Z,3064
2022-09-23T08:20:59.185Z,3052
2022-09-23T08:21:59.433Z,3000
2022-09-23T08:22:59.424Z,2976
2022-09-23T08:23:59.298Z,2992
2022-09-23T08:25:02.323Z,2980
2022-09-23T08:26:03.173Z,2988
2022-09-23T08:26:59.499Z,3000
2022-09-23T08:27:59.759Z,3008
2022-09-23T08:28:59.986Z,3008
2022-09-23T08:29:59.983Z,3000
2022-09-23T08:30:59.937Z,2960
2022-09-23T08:31:59.705Z,2948
2022-09-23T08:32:59.688Z,2956
2022-09-23T08:33:59.805Z,2960
2022-09-23T08:34:59.420Z,2964
2022-09-23T08:35:59.457Z,2964
2022-09-23T08:36:59.895Z,2956
2022-09-23T08:37:59.938Z,2960
2022-09-23T08:38:59.402Z,2968
2022-09-23T08:39:59.627Z,2940
2022-09-23T08:40:59.605Z,2928
2022-09-23T08:42:05.393Z,2900
2022-09-23T08:42:59.323Z,2912
2022-09-23T08:43:59.375Z,2896
2022-09-23T08:44:59.817Z,2860
2022-09-23T08:46:00.675Z,2812
2022-09-23T08:47:00.257Z,2792
2022-09-23T08:47:59.916Z,2788
2022-09-23T08:48:59.903Z,2780
2022-09-23T08:49:59.883Z,2760
2022-09-23T08:51:00.389Z,2744
2022-09-23T08:52:00.516Z,2732
2022-09-23T08:53:00.363Z,2716
2022-09-23T08:54:00.417Z,2720
2022-09-23T08:55:02.491Z,2736
2022-09-23T08:56:00.336Z,2740
2022-09-23T08:56:59.815Z,2736
2022-09-23T08:58:31.333Z,2764
2022-09-23T08:59:00.065Z,2768
2022-09-23T09:00:00.033Z,2772
2022-09-23T09:01:00.323Z,2784
2022-09-23T09:01:59.759Z,2792
2022-09-23T09:02:59.969Z,2796
2022-09-23T09:03:59.741Z,2804
2022-09-23T09:05:00.241Z,2800
2022-09-23T09:06:01.437Z,2820
2022-09-23T09:07:40.086Z,2832
2022-09-23T09:07:59.696Z,2836
2022-09-23T09:08:59.959Z,2860
2022-09-23T09:09:59.984Z,2884
2022-09-23T09:10:59.925Z,2940
2022-09-23T09:11:59.907Z,2972
2022-09-23T09:12:59.907Z,3008
2022-09-23T09:13:59.893Z,3028
2022-09-23T09:14:59.638Z,3072
2022-09-23T09:16:02.282Z,3120
2022-09-23T09:17:06.975Z,3160
2022-09-23T09:17:59.863Z,3176
2022-09-23T09:18:59.912Z,3212
2022-09-23T09:19:59.630Z,3228
2022-09-23T09:20:59.647Z,3216
2022-09-23T09:21:59.811Z,3232
2022-09-23T09:23:00.587Z,3260
2022-09-23T09:23:59.845Z,3288
2022-09-23T09:25:00.049Z,3468
2022-09-23T09:26:00.102Z,3516
2022-09-23T09:26:59.510Z,3524
2022-09-23T09:27:59.778Z,3556
2022-09-23T09:29:36.017Z,3532
2022-09-23T09:29:59.486Z,3544
2022-09-23T09:31:00.023Z,3520
2022-09-23T09:31:59.470Z,3616
2022-09-23T09:32:59.722Z,3776
2022-09-23T09:33:59.706Z,3876
2022-09-23T09:34:59.699Z,3928
2022-09-23T09:35:59.687Z,3900
2022-09-23T09:37:01.292Z,3904
2022-09-23T09:38:00.837Z,4016
2022-09-23T09:38:59.874Z,4108
2022-09-23T09:39:59.399Z,4148
2022-09-23T09:40:59.807Z,4212
2022-09-23T09:41:59.706Z,4236
2022-09-23T09:42:59.642Z,4216
2022-09-23T09:43:59.706Z,4256
2022-09-23T09:44:59.619Z,4196
2022-09-23T09:46:04.474Z,4088
2022-09-23T09:47:00.185Z,3896
2022-09-23T09:47:59.648Z,3984
2022-09-23T09:48:59.618Z,4160
2022-09-23T09:49:59.828Z,4304
2022-09-23T09:50:59.583Z,4348
2022-09-23T09:51:59.305Z,4384
2022-09-23T09:52:59.496Z,4436
2022-09-23T09:53:59.576Z,4576
2022-09-23T09:54:59.601Z,4656
2022-09-23T09:56:06.067Z,4628
2022-09-23T09:56:59.523Z,4660
2022-09-23T09:57:59.812Z,4896
2022-09-23T09:58:59.746Z,5084
2022-09-23T09:59:59.449Z,5112
2022-09-23T10:00:59.475Z,5204
2022-09-23T10:01:59.513Z,5152
2022-09-23T10:02:59.696Z,5136
2022-09-23T10:04:04.303Z,4908
2022-09-23T10:04:59.487Z,4728
2022-09-23T10:05:59.383Z,4568
2022-09-23T10:06:59.121Z,4380
2022-09-23T10:07:59.621Z,4300
2022-09-23T10:08:59.108Z,4328
2022-09-23T10:10:33.097Z,4484
2022-09-23T10:10:59.365Z,4528
2022-09-23T10:11:59.365Z,4680
2022-09-23T10:12:59.326Z,4812
2022-09-23T10:13:59.381Z,4804
2022-09-23T10:14:59.332Z,4696
2022-09-23T10:15:59.306Z,4540
2022-09-23T10:16:59.512Z,4356
2022-09-23T10:17:59.549Z,4288
2022-09-23T10:18:59.284Z,4220
2022-09-23T10:19:59.035Z,4196
2022-09-23T10:20:59.268Z,4244
2022-09-23T10:21:58.757Z,4284
2022-09-23T10:22:59.507Z,4328
2022-09-23T10:23:59.508Z,4504
2022-09-23T10:24:59.233Z,4648
2022-09-23T10:25:59.027Z,4644
2022-09-23T10:26:59.248Z,4552
2022-09-23T10:27:59.227Z,4468
2022-09-23T10:28:58.965Z,4472
2022-09-23T10:29:59.578Z,4492
2022-09-23T10:30:59.620Z,4500
2022-09-23T10:31:59.186Z,4528
2022-09-23T10:32:59.601Z,4516
2022-09-23T10:33:59.435Z,4484
2022-09-23T10:34:59.472Z,4440
2022-09-23T10:35:59.659Z,4388
2022-09-23T10:36:58.900Z,4360
2022-09-23T10:37:58.908Z,4364
2022-09-23T10:38:59.143Z,4376
2022-09-23T10:39:59.135Z,4340
2022-09-23T10:40:59.624Z,4356
2022-09-23T10:41:59.435Z,4340
2022-09-23T10:42:59.119Z,4316
2022-09-23T10:43:59.364Z,4292
2022-09-23T10:44:59.357Z,4220
2022-09-23T10:45:59.459Z,4164
2022-09-23T10:46:59.097Z,4184
2022-09-23T10:47:59.133Z,4184
2022-09-23T10:48:58.819Z,4272
2022-09-23T10:49:58.812Z,4396
2022-09-23T10:51:01.713Z,4480
2022-09-23T10:51:59.052Z,4576
2022-09-23T10:52:59.049Z,4632
2022-09-23T10:53:59.371Z,4688
2022-09-23T10:54:59.293Z,4776
2022-09-23T10:55:59.298Z,4856
2022-09-23T10:57:05.092Z,4976
2022-09-23T10:57:59.341Z,5016
2022-09-23T10:58:58.757Z,5112
2022-09-23T10:59:58.745Z,5184
2022-09-23T11:00:58.985Z,5212
2022-09-23T11:01:59.332Z,5240
2022-09-23T11:02:58.747Z,5280
2022-09-23T11:03:59.266Z,5284
2022-09-23T11:04:59.156Z,5300
2022-09-23T11:05:58.957Z,5256
2022-09-23T11:06:58.962Z,5180
2022-09-23T11:07:58.949Z,5140
2022-09-23T11:08:59.216Z,5080
2022-09-23T11:09:58.937Z,5048
2022-09-23T11:10:58.981Z,5008
2022-09-23T11:11:58.668Z,4968
2022-09-23T11:12:58.966Z,4932
2022-09-23T11:14:01.859Z,4852
2022-09-23T11:14:58.658Z,4756
2022-09-23T11:15:58.387Z,4688
2022-09-23T11:16:59.442Z,4600
2022-09-23T11:17:58.951Z,4556
2022-09-23T11:18:58.900Z,4496
2022-09-23T11:19:58.875Z,4432
2022-09-23T11:20:58.889Z,4376
2022-09-23T11:21:58.608Z,4344
2022-09-23T11:22:58.856Z,4320
2022-09-23T11:23:58.843Z,4304
2022-09-23T11:24:58.633Z,4324
2022-09-23T11:25:58.836Z,4308
2022-09-23T11:26:59.082Z,4276
2022-09-23T11:27:58.825Z,4196
2022-09-23T11:28:58.606Z,4204
2022-09-23T11:29:58.550Z,4224
2022-09-23T11:30:59.032Z,4216
2022-09-23T11:32:04.064Z,4212
2022-09-23T11:32:58.525Z,4196
2022-09-23T11:33:59.083Z,4140
2022-09-23T11:35:02.061Z,4116
2022-09-23T11:35:58.769Z,4076
2022-09-23T11:36:59.023Z,4076
2022-09-23T11:37:58.751Z,4104
2022-09-23T11:38:59.384Z,4096
2022-09-23T11:39:59.125Z,4060
2022-09-23T11:40:59.537Z,4036
2022-09-23T11:41:59.102Z,4028
2022-09-23T11:42:59.100Z,3988
2022-09-23T11:43:59.092Z,3976
2022-09-23T11:44:59.247Z,3956
2022-09-23T11:45:59.621Z,3944
2022-09-23T11:46:59.063Z,3920
2022-09-23T11:47:59.079Z,3880
2022-09-23T11:48:58.803Z,3856
2022-09-23T11:49:59.102Z,3812
2022-09-23T11:50:59.294Z,3784
2022-09-23T11:51:58.776Z,3732
2022-09-23T11:52:59.024Z,3680
2022-09-23T11:53:58.767Z,3680
2022-09-23T11:54:59.200Z,3688
2022-09-23T11:56:05.387Z,3684
2022-09-23T11:56:58.492Z,3660
2022-09-23T11:57:59.249Z,3656
2022-09-23T11:59:04.802Z,3640
2022-09-23T11:59:59.254Z,3620
2022-09-23T12:01:05.887Z,3648
2022-09-23T12:02:05.646Z,3624
2022-09-23T12:03:11.529Z,3616
2022-09-23T12:04:07.970Z,3580
2022-09-23T12:05:05.765Z,3544
2022-09-23T12:05:59.836Z,3512
2022-09-23T12:06:58.929Z,3504
2022-09-23T12:07:58.937Z,3464
2022-09-23T12:08:59.169Z,3420
2022-09-23T12:10:05.707Z,3360
2022-09-23T12:10:58.901Z,3316
2022-09-23T12:11:58.895Z,3244
2022-09-23T12:12:59.137Z,3184
2022-09-23T12:13:59.145Z,3104
2022-09-23T12:14:58.969Z,3052
2022-09-23T12:15:58.912Z,3004
2022-09-23T12:16:59.214Z,2968
2022-09-23T12:17:59.139Z,2924
2022-09-23T12:18:58.586Z,2884
2022-09-23T12:19:58.596Z,2824
2022-09-23T12:20:59.105Z,2792
2022-09-23T12:21:58.625Z,2740
2022-09-23T12:22:58.821Z,2680
2022-09-23T12:23:58.806Z,2644
2022-09-23T12:24:58.894Z,2608
2022-09-23T12:25:59.041Z,2592
2022-09-23T12:26:58.543Z,2556
2022-09-23T12:27:58.524Z,2524
2022-09-23T12:28:58.772Z,2508
2022-09-23T12:29:58.513Z,2484
2022-09-23T12:30:58.838Z,2468
2022-09-23T12:31:59.002Z,2472
2022-09-23T12:32:58.796Z,2460
2022-09-23T12:33:58.736Z,2468
2022-09-23T12:34:58.253Z,2196
2022-09-23T12:35:58.467Z,2340
2022-09-23T12:36:58.769Z,2432
2022-09-23T12:37:58.983Z,2432
2022-09-23T12:38:58.695Z,2444
2022-09-23T12:39:58.431Z,2472
2022-09-23T12:40:59.023Z,2480
2022-09-23T12:41:58.438Z,2508
2022-09-23T12:42:58.665Z,2468
2022-09-23T12:43:58.659Z,2588
2022-09-23T12:44:58.660Z,2788
2022-09-23T12:45:59.100Z,2956
2022-09-23T12:46:58.663Z,2736
2022-09-23T12:47:58.627Z,2604
2022-09-23T12:48:58.931Z,2716
2022-09-23T12:49:58.367Z,2960
2022-09-23T12:50:58.098Z,3228
2022-09-23T12:51:58.599Z,3348
2022-09-23T12:52:58.365Z,3100
2022-09-23T12:53:58.614Z,3004
2022-09-23T12:54:58.597Z,3000
2022-09-23T12:55:58.582Z,2904
2022-09-23T12:56:58.076Z,2832
2022-09-23T12:57:58.549Z,2828
2022-09-23T12:58:58.547Z,2752
2022-09-23T12:59:58.788Z,2644
2022-09-23T13:00:59.286Z,2564
2022-09-23T13:01:59.182Z,2536
2022-09-23T13:02:58.539Z,2520
2022-09-23T13:03:58.508Z,2596
2022-09-23T13:04:58.674Z,2592
2022-09-23T13:05:58.746Z,2580
2022-09-23T13:06:58.486Z,2600
2022-09-23T13:07:58.745Z,2588
2022-09-23T13:08:58.559Z,2412
2022-09-23T13:09:58.228Z,2704
2022-09-23T13:10:57.944Z,2804
2022-09-23T13:11:58.444Z,2968
2022-09-23T13:12:58.185Z,3148
2022-09-23T13:13:58.194Z,3144
2022-09-23T13:14:58.273Z,3004
2022-09-23T13:15:58.168Z,2816
2022-09-23T13:16:58.941Z,2764
2022-09-23T13:17:58.659Z,2748
2022-09-23T13:18:58.651Z,2776
2022-09-23T13:19:58.653Z,2768
2022-09-23T13:20:58.177Z,2692
2022-09-23T13:21:58.396Z,2716
2022-09-23T13:22:58.368Z,2740
2022-09-23T13:23:58.615Z,2772
2022-09-23T13:24:58.436Z,2728
2022-09-23T13:25:58.369Z,2756
2022-09-23T13:26:58.340Z,2828
2022-09-23T13:27:58.331Z,2748
2022-09-23T13:28:58.061Z,2856
2022-09-23T13:29:59.092Z,2880
2022-09-23T13:30:59.117Z,2944
2022-09-23T13:31:58.684Z,2988
2022-09-23T13:32:58.546Z,3012
2022-09-23T13:33:58.280Z,2940
2022-09-23T13:34:58.372Z,2924
2022-09-23T13:35:58.272Z,2984
2022-09-23T13:36:58.490Z,3064
2022-09-23T13:37:57.739Z,3172
2022-09-23T13:38:58.502Z,3260
2022-09-23T13:39:57.992Z,3312
2022-09-23T13:40:58.695Z,3312
2022-09-23T13:41:58.246Z,3336
2022-09-23T13:42:58.207Z,3396
2022-09-23T13:43:57.957Z,3464
2022-09-23T13:44:58.234Z,3560
2022-09-23T13:45:58.190Z,3688
2022-09-23T13:46:57.925Z,3756
2022-09-23T13:47:57.662Z,3748
2022-09-23T13:48:58.169Z,3692
2022-09-23T13:49:58.455Z,3652
2022-09-23T13:50:58.464Z,3640
2022-09-23T13:51:58.439Z,3596
2022-09-23T13:52:58.221Z,3596
2022-09-23T13:53:58.178Z,3648
2022-09-23T13:54:58.222Z,3660
2022-09-23T13:55:59.814Z,3676
2022-09-23T13:56:58.169Z,3700
2022-09-23T13:57:58.274Z,3720
2022-09-23T13:58:58.384Z,3672
2022-09-23T13:59:58.126Z,3652
2022-09-23T14:00:58.508Z,3624
2022-09-23T14:01:58.349Z,3596
2022-09-23T14:02:57.845Z,3516